createdAt,value
2023-04-13T00:01:41.886Z,99747.41
2023-04-13T00:04:11.215Z,99740.97
2023-04-13T00:06:43.756Z,99744.34
2023-04-13T00:09:12.490Z,99742.72
2023-04-13T00:11:43.968Z,99753.63
2023-04-13T00:14:13.049Z,99749.63
2023-04-13T00:16:42.849Z,99748.53
2023-04-13T00:19:13.461Z,99757.47
2023-04-13T00:21:44.234Z,99760.72
2023-04-13T00:24:13.671Z,99763.94
2023-04-13T00:26:45.941Z,99761.38
2023-04-13T00:29:15.526Z,99763.78
2023-04-13T00:31:47.047Z,99760.97
2023-04-13T00:34:17.720Z,99766.94
2023-04-13T00:36:47.137Z,99770.78
2023-04-13T00:39:16.633Z,99768.50
2023-04-13T00:41:46.064Z,99773.34
2023-04-13T00:44:17.294Z,99778.19
2023-04-13T00:46:52.168Z,99784.44
2023-04-13T00:49:22.294Z,99782.09
2023-04-13T00:51:51.964Z,99794.78
2023-04-13T00:54:22.013Z,99788.91
2023-04-13T00:56:53.280Z,99789.25
2023-04-13T00:59:24.679Z,99787.19
2023-04-13T01:02:01.081Z,99795.06
2023-04-13T01:04:36.222Z,99791.94
2023-04-13T01:07:48.554Z,99801.84
2023-04-13T01:10:37.683Z,99797.63
2023-04-13T01:13:17.495Z,99802.53
2023-04-13T01:16:06.820Z,99812.88
2023-04-13T01:18:44.331Z,99814.69
2023-04-13T01:21:20.772Z,99818.25
2023-04-13T01:24:11.133Z,99814.34
2023-04-13T01:27:33.308Z,99825.41
2023-04-13T01:30:05.299Z,99825.97
2023-04-13T01:32:36.578Z,99824.66
2023-04-13T01:35:07.958Z,99826.75
2023-04-13T01:37:36.614Z,99829.38
2023-04-13T01:40:13.581Z,99829.03
2023-04-13T01:42:50.233Z,99832.34
2023-04-13T01:45:22.142Z,99840.53
2023-04-13T01:48:05.437Z,99827.75
2023-04-13T01:51:35.711Z,99835.38
2023-04-13T01:54:36.316Z,99845.97
2023-04-13T01:57:05.951Z,99844.91
2023-04-13T01:59:37.321Z,99850.81
2023-04-13T02:02:08.152Z,99842.88
2023-04-13T02:04:41.312Z,99843.22
2023-04-13T02:07:13.659Z,99842.63
2023-04-13T02:09:48.886Z,99846.34
2023-04-13T02:12:18.411Z,99843.22
2023-04-13T02:14:48.140Z,99844.84
2023-04-13T02:17:18.040Z,99847.84
2023-04-13T02:19:47.936Z,99849.06
2023-04-13T02:22:17.533Z,99851.19
2023-04-13T02:24:46.090Z,99851.44
2023-04-13T02:27:15.036Z,99851.66
2023-04-13T02:29:45.410Z,99846.28
2023-04-13T02:32:18.188Z,99857.09
2023-04-13T02:34:49.249Z,99858.47
2023-04-13T02:37:18.262Z,99858.97
2023-04-13T02:39:48.290Z,99858.91
2023-04-13T02:42:18.156Z,99866.63
2023-04-13T02:44:48.345Z,99858.75
2023-04-13T02:47:18.252Z,99854.44
2023-04-13T02:49:48.108Z,99854.78
2023-04-13T02:52:29.661Z,99855.16
2023-04-13T02:55:06.383Z,99845.88
2023-04-13T02:57:47.505Z,99850.06
2023-04-13T03:00:17.918Z,99847.44
2023-04-13T03:02:54.221Z,99846.56
2023-04-13T03:05:28.712Z,99842.47
2023-04-13T03:08:00.464Z,99845.94
2023-04-13T03:10:31.894Z,99840.69
2023-04-13T03:13:02.720Z,99841.78
2023-04-13T03:15:32.896Z,99840.03
2023-04-13T03:18:05.160Z,99847.66
2023-04-13T03:20:36.131Z,99845.66
2023-04-13T03:23:05.243Z,99836.81
2023-04-13T03:25:37.078Z,99846.19
2023-04-13T03:28:09.100Z,99842.78
2023-04-13T03:30:43.825Z,99836.78
2023-04-13T03:33:13.196Z,99832.38
2023-04-13T03:35:44.107Z,99839.94
2023-04-13T03:38:22.691Z,99838.03
2023-04-13T03:40:52.192Z,99835.75
2023-04-13T03:43:24.863Z,99832.13
2023-04-13T03:46:02.998Z,99834.19
2023-04-13T03:48:34.558Z,99838.97
2023-04-13T03:51:09.768Z,99837.47
2023-04-13T03:53:50.629Z,99831.28
2023-04-13T03:56:24.477Z,99825.47
2023-04-13T03:58:54.884Z,99821.06
2023-04-13T04:01:32.801Z,99827.16
2023-04-13T04:04:03.397Z,99824.94
2023-04-13T04:06:33.924Z,99825.88
2023-04-13T04:09:18.753Z,99824.78
2023-04-13T04:11:49.648Z,99827.56
2023-04-13T04:14:28.087Z,99840.28
2023-04-13T04:17:06.152Z,99832.72
2023-04-13T04:19:34.887Z,99838.31
2023-04-13T04:22:05.742Z,99836.31
2023-04-13T04:24:40.050Z,99829.78
2023-04-13T04:27:15.102Z,99829.19
2023-04-13T04:29:49.933Z,99829.88
2023-04-13T04:32:25.972Z,99831.41
2023-04-13T04:34:59.908Z,99838.16
2023-04-13T04:37:38.152Z,99842.56
2023-04-13T04:40:14.067Z,99847.97
2023-04-13T04:42:44.109Z,99850.72
2023-04-13T04:45:29.331Z,99851.75
2023-04-13T04:48:04.233Z,99855.03
2023-04-13T04:50:34.323Z,99856.72
2023-04-13T04:53:16.205Z,99852.59
2023-04-13T04:55:47.432Z,99852.13
2023-04-13T04:58:34.153Z,99862.69
2023-04-13T05:01:04.708Z,99860.94
2023-04-13T05:03:34.470Z,99858.19
2023-04-13T05:06:21.793Z,99861.09
2023-04-13T05:08:52.718Z,99860.59
2023-04-13T05:11:22.021Z,99865.88
2023-04-13T05:13:50.654Z,99857.34
2023-04-13T05:16:22.516Z,99853.69
2023-04-13T05:18:55.030Z,99857.88
2023-04-13T05:21:44.915Z,99857.09
2023-04-13T05:24:14.333Z,99859.13
2023-04-13T05:26:44.773Z,99866.03
2023-04-13T05:29:17.934Z,99865.00
2023-04-13T05:31:48.331Z,99870.66
2023-04-13T05:34:17.884Z,99863.16
2023-04-13T05:37:02.304Z,99871.69
2023-04-13T05:39:33.625Z,99873.84
2023-04-13T05:42:02.400Z,99873.34
2023-04-13T05:44:34.137Z,99872.88
2023-04-13T05:47:03.525Z,99881.13
2023-04-13T05:49:37.411Z,99883.81
2023-04-13T05:52:08.786Z,99887.44
2023-04-13T05:54:44.442Z,99873.47
2023-04-13T05:57:13.614Z,99876.91
2023-04-13T05:59:48.193Z,99878.66
2023-04-13T06:02:23.069Z,99873.06
2023-04-13T06:04:54.276Z,99875.03
2023-04-13T06:07:25.652Z,99877.09
2023-04-13T06:09:55.029Z,99883.47
2023-04-13T06:12:24.841Z,99879.38
2023-04-13T06:14:54.410Z,99879.94
2023-04-13T06:17:24.125Z,99882.91
2023-04-13T06:19:52.659Z,99889.19
2023-04-13T06:22:21.807Z,99880.41
2023-04-13T06:24:55.008Z,99886.66
2023-04-13T06:27:25.494Z,99880.53
2023-04-13T06:29:54.464Z,99884.78
2023-04-13T06:32:24.140Z,99882.41
2023-04-13T06:34:52.958Z,99885.25
2023-04-13T06:37:22.001Z,99891.09
2023-04-13T06:39:55.112Z,99889.19
2023-04-13T06:42:30.034Z,99891.31
2023-04-13T06:48:12.515Z,99896.59
2023-04-13T06:50:42.915Z,99896.69
2023-04-13T06:53:14.529Z,99895.50
2023-04-13T06:55:45.947Z,99902.19
2023-04-13T06:58:14.902Z,99896.09
2023-04-13T07:00:44.769Z,99899.16
2023-04-13T07:03:14.513Z,99906.31
2023-04-13T07:05:46.514Z,99906.16
2023-04-13T07:08:20.334Z,99911.09
2023-04-13T07:10:55.248Z,99905.34
2023-04-13T07:13:34.182Z,99906.25
2023-04-13T07:16:02.630Z,99907.75
2023-04-13T07:18:33.741Z,99904.56
2023-04-13T07:21:02.619Z,99900.50
2023-04-13T07:23:38.156Z,99897.34
2023-04-13T07:26:08.518Z,99891.75
2023-04-13T07:28:37.809Z,99889.66
2023-04-13T07:31:07.070Z,99897.13
2023-04-13T07:33:40.613Z,99898.69
2023-04-13T07:36:10.760Z,99899.44
2023-04-13T07:38:42.913Z,99902.50
2023-04-13T07:41:16.735Z,99901.09
2023-04-13T07:43:48.942Z,99910.38
2023-04-13T07:46:17.759Z,99899.28
2023-04-13T07:48:46.290Z,99907.97
2023-04-13T07:51:24.653Z,99910.13
2023-04-13T07:53:54.227Z,99912.94
2023-04-13T07:56:24.223Z,99901.41
2023-04-13T07:58:54.569Z,99908.53
2023-04-13T08:01:24.230Z,99915.38
2023-04-13T08:03:53.218Z,99920.31
2023-04-13T08:06:25.252Z,99919.88
2023-04-13T08:08:54.998Z,99925.19
2023-04-13T08:11:26.883Z,99931.25
2023-04-13T08:14:05.477Z,99920.41
2023-04-13T08:16:35.669Z,99929.69
2023-04-13T08:19:12.500Z,99924.31
2023-04-13T08:21:48.678Z,99927.63
2023-04-13T08:24:17.973Z,99934.13
2023-04-13T08:26:46.442Z,99936.22
2023-04-13T08:29:16.611Z,99935.56
2023-04-13T08:31:45.304Z,99933.69
2023-04-13T08:34:14.712Z,99930.94
2023-04-13T08:36:46.459Z,99924.94
2023-04-13T08:39:16.542Z,99929.72
2023-04-13T08:41:49.114Z,99930.13
2023-04-13T08:44:21.892Z,99935.41
2023-04-13T08:46:54.723Z,99935.22
2023-04-13T08:49:31.391Z,99939.16
2023-04-13T08:52:16.974Z,99940.34
2023-04-13T08:54:51.376Z,99943.06
2023-04-13T08:57:26.180Z,99941.66
2023-04-13T08:59:54.533Z,99948.91
2023-04-13T09:02:26.827Z,99950.41
2023-04-13T09:05:06.877Z,99951.84
2023-04-13T09:07:37.916Z,99955.78
2023-04-13T09:10:20.691Z,99960.72
2023-04-13T09:12:52.794Z,99960.28
2023-04-13T09:15:25.916Z,99967.13
2023-04-13T09:18:21.188Z,99964.88
2023-04-13T09:21:01.577Z,99973.94
2023-04-13T09:23:32.053Z,99969.63
2023-04-13T09:26:10.057Z,99984.94
2023-04-13T09:28:49.344Z,99983.72
2023-04-13T09:31:18.380Z,99988.16
2023-04-13T09:33:50.038Z,99984.03
2023-04-13T09:36:22.323Z,99982.00
2023-04-13T09:38:53.515Z,99986.53
2023-04-13T09:41:42.481Z,99989.63
2023-04-13T09:44:30.477Z,99999.81
2023-04-13T09:47:02.395Z,100005.56
2023-04-13T09:49:40.281Z,100000.56
2023-04-13T09:52:30.560Z,100000.81
2023-04-13T09:55:01.338Z,100003.84
2023-04-13T09:57:34.176Z,100001.50
2023-04-13T10:00:02.766Z,100007.66
2023-04-13T10:02:41.368Z,100004.34
2023-04-13T10:05:12.458Z,100013.47
2023-04-13T10:07:44.874Z,100010.97
2023-04-13T10:10:14.177Z,100014.31
2023-04-13T10:12:56.221Z,100023.59
2023-04-13T10:15:28.089Z,100029.19
2023-04-13T10:18:04.952Z,100027.97
2023-04-13T10:20:35.321Z,100029.38
2023-04-13T10:23:06.907Z,100032.47
2023-04-13T10:25:39.604Z,100046.91
2023-04-13T10:28:10.384Z,100032.69
2023-04-13T10:30:51.476Z,100039.50
2023-04-13T10:33:22.102Z,100039.50
2023-04-13T10:36:00.620Z,100039.06
2023-04-13T10:38:30.824Z,100038.47
2023-04-13T10:41:02.329Z,100042.78
2023-04-13T10:43:33.449Z,100048.34
2023-04-13T10:46:10.229Z,100047.53
2023-04-13T10:48:44.388Z,100060.53
2023-04-13T10:51:13.156Z,100057.66
2023-04-13T10:53:42.678Z,100057.28
2023-04-13T10:56:20.104Z,100065.94
2023-04-13T10:58:54.767Z,100061.84
2023-04-13T11:01:24.513Z,100065.31
2023-04-13T11:04:03.779Z,100070.91
2023-04-13T11:06:39.753Z,100072.28
2023-04-13T11:09:14.411Z,100067.19
2023-04-13T11:11:52.087Z,100079.22
2023-04-13T11:14:24.449Z,100075.47
2023-04-13T11:16:58.448Z,100075.47
2023-04-13T11:19:29.845Z,100088.06
2023-04-13T11:21:59.567Z,100092.44
2023-04-13T11:24:36.464Z,100088.28
2023-04-13T11:27:22.149Z,100095.75
2023-04-13T11:30:08.005Z,100094.50
2023-04-13T11:32:40.782Z,100085.41
2023-04-13T11:35:17.585Z,100087.25
2023-04-13T11:37:49.953Z,100084.25
2023-04-13T11:40:23.925Z,100090.59
2023-04-13T11:42:55.936Z,100096.06
2023-04-13T11:45:29.523Z,100096.19
2023-04-13T11:48:00.508Z,100097.44
2023-04-13T11:50:32.176Z,100098.69
2023-04-13T11:53:02.084Z,100097.25
2023-04-13T11:55:42.548Z,100100.66
2023-04-13T11:58:22.251Z,100102.97
2023-04-13T12:00:50.628Z,100107.31
2023-04-13T12:06:02.458Z,100099.06
2023-04-13T12:08:33.870Z,100098.50
2023-04-13T12:11:39.030Z,100106.56
2023-04-13T12:14:06.964Z,100096.75
2023-04-13T12:19:14.030Z,100096.06
2023-04-13T12:21:57.676Z,100100.75
2023-04-13T12:24:42.637Z,100102.38
2023-04-13T12:29:44.439Z,100090.50
2023-04-13T12:32:17.686Z,100094.47
2023-04-13T12:34:46.460Z,100098.75
2023-04-13T12:37:15.545Z,100087.81
2023-04-13T12:39:45.748Z,100082.69
2023-04-13T12:42:15.510Z,100084.03
2023-04-13T12:44:46.017Z,100086.44
2023-04-13T12:47:15.356Z,100089.81
2023-04-13T12:49:57.834Z,100086.72
2023-04-13T12:52:42.400Z,100100.88
2023-04-13T12:55:13.711Z,100101.22
2023-04-13T12:57:43.319Z,100095.69
2023-04-13T13:00:17.121Z,100096.69
2023-04-13T13:02:47.009Z,100096.16
2023-04-13T13:05:18.263Z,100087.16
2023-04-13T13:07:48.664Z,100084.97
2023-04-13T13:10:28.997Z,100078.81
2023-04-13T13:12:59.755Z,100076.03
2023-04-13T13:15:33.914Z,100076.13
2023-04-13T13:18:04.716Z,100074.47
2023-04-13T13:20:34.493Z,100081.78
2023-04-13T13:23:05.920Z,100086.72
2023-04-13T13:25:38.733Z,100075.94
2023-04-13T13:28:14.949Z,100077.41
2023-04-13T13:30:45.597Z,100072.28
2023-04-13T13:33:14.803Z,100078.03
2023-04-13T13:35:44.598Z,100071.25
2023-04-13T13:38:13.745Z,100082.41
2023-04-13T13:40:43.366Z,100081.34
2023-04-13T13:43:14.355Z,100086.28
2023-04-13T13:45:44.606Z,100086.28
2023-04-13T13:48:13.818Z,100086.25
2023-04-13T13:50:52.686Z,100084.34
2023-04-13T13:53:22.870Z,100083.19
2023-04-13T13:55:52.480Z,100088.91
2023-04-13T13:58:22.099Z,100077.44
2023-04-13T14:00:51.252Z,100079.56
2023-04-13T14:03:21.516Z,100089.63
2023-04-13T14:05:50.621Z,100089.56
2023-04-13T14:08:19.764Z,100078.50
2023-04-13T14:10:49.282Z,100090.88
2023-04-13T14:13:18.937Z,100092.22
2023-04-13T14:15:49.133Z,100093.81
2023-04-13T14:18:18.466Z,100083.97
2023-04-13T14:20:47.205Z,100085.84
2023-04-13T14:23:17.696Z,100084.81
2023-04-13T14:25:49.147Z,100081.16
2023-04-13T14:28:19.535Z,100073.47
2023-04-13T14:30:49.691Z,100074.28
2023-04-13T14:33:20.628Z,100075.88
2023-04-13T14:35:49.835Z,100075.50
2023-04-13T14:38:18.764Z,100083.97
2023-04-13T14:40:49.044Z,100077.59
2023-04-13T14:43:18.739Z,100069.47
2023-04-13T14:45:48.905Z,100057.25
2023-04-13T14:48:18.166Z,100055.00
2023-04-13T14:50:48.626Z,100066.41
2023-04-13T14:53:18.604Z,100061.63
2023-04-13T14:55:48.669Z,100059.72
2023-04-13T14:58:18.278Z,100055.00
2023-04-13T15:00:50.302Z,100058.38
2023-04-13T15:03:19.616Z,100059.25
2023-04-13T15:05:50.338Z,100061.50
2023-04-13T15:08:20.884Z,100064.75
2023-04-13T15:10:50.082Z,100061.47
2023-04-13T15:13:19.040Z,100062.25
2023-04-13T15:15:49.716Z,100059.22
2023-04-13T15:18:18.482Z,100046.56
2023-04-13T15:20:48.142Z,100051.94
2023-04-13T15:23:19.804Z,100049.03
2023-04-13T15:25:50.777Z,100054.25
2023-04-13T15:28:21.117Z,100049.78
2023-04-13T15:30:52.831Z,100055.00
2023-04-13T15:33:22.541Z,100051.69
2023-04-13T15:35:52.923Z,100052.06
2023-04-13T15:38:22.979Z,100046.97
2023-04-13T15:40:53.176Z,100035.50
2023-04-13T15:43:22.548Z,100039.91
2023-04-13T15:45:52.014Z,100033.66
2023-04-13T15:48:22.662Z,100039.69
2023-04-13T15:51:57.006Z,100040.75
2023-04-13T15:54:27.073Z,100030.44
2023-04-13T15:57:03.566Z,100029.66
2023-04-13T15:59:35.333Z,100034.53
2023-04-13T16:02:05.611Z,100030.34
2023-04-13T16:04:35.330Z,100019.97
2023-04-13T16:07:13.756Z,100018.66
2023-04-13T16:10:01.159Z,100018.50
2023-04-13T16:12:34.560Z,100014.66
2023-04-13T16:15:06.707Z,100018.34
2023-04-13T16:17:38.732Z,100015.09
2023-04-13T16:20:23.266Z,100011.44
2023-04-13T16:22:53.980Z,100009.41
2023-04-13T16:25:22.985Z,100012.69
2023-04-13T16:27:54.888Z,99996.44
2023-04-13T16:30:25.139Z,99999.44
2023-04-13T16:32:54.176Z,99998.47
2023-04-13T16:35:22.824Z,99995.69
2023-04-13T16:37:52.690Z,99995.09
2023-04-13T16:40:22.263Z,99996.00
2023-04-13T16:42:50.490Z,99996.13
2023-04-13T16:45:18.685Z,99990.84
2023-04-13T16:47:48.337Z,99977.03
2023-04-13T16:51:05.262Z,99970.38
2023-04-13T16:53:34.710Z,99968.41
2023-04-13T16:56:05.953Z,99955.19
2023-04-13T16:58:36.902Z,99950.91
2023-04-13T17:01:07.271Z,99958.22
2023-04-13T17:03:37.259Z,99958.78
2023-04-13T17:06:08.331Z,99950.84
2023-04-13T17:08:36.911Z,99945.59
2023-04-13T17:11:07.676Z,99951.19
2023-04-13T17:13:38.232Z,99943.88
2023-04-13T17:16:08.790Z,99943.75
2023-04-13T17:19:08.639Z,99939.63
2023-04-13T17:21:38.095Z,99939.53
2023-04-13T17:24:06.928Z,99938.34
2023-04-13T17:26:36.996Z,99942.25
2023-04-13T17:29:06.994Z,99941.16
2023-04-13T17:31:35.711Z,99931.28
2023-04-13T17:34:06.214Z,99936.31
2023-04-13T17:36:34.585Z,99933.56
2023-04-13T17:39:03.341Z,99929.38
2023-04-13T17:41:34.536Z,99929.22
2023-04-13T17:44:04.369Z,99923.03
2023-04-13T17:46:32.756Z,99924.03
2023-04-13T17:49:02.174Z,99914.44
2023-04-13T17:51:33.053Z,99907.75
2023-04-13T17:54:02.747Z,99907.09
2023-04-13T17:56:32.146Z,99907.69
2023-04-13T17:59:02.629Z,99912.50
2023-04-13T18:01:32.770Z,99900.16
2023-04-13T18:04:01.904Z,99903.22
2023-04-13T18:06:32.734Z,99905.31
2023-04-13T18:09:01.870Z,99890.06
2023-04-13T18:11:32.706Z,99886.22
2023-04-13T18:14:03.532Z,99886.22
2023-04-13T18:16:33.584Z,99891.56
2023-04-13T18:19:02.965Z,99883.34
2023-04-13T18:21:33.493Z,99878.00
2023-04-13T18:24:03.326Z,99885.31
2023-04-13T18:26:32.729Z,99876.56
2023-04-13T18:29:03.384Z,99869.88
2023-04-13T18:31:34.917Z,99876.72
2023-04-13T18:34:07.142Z,99875.13
2023-04-13T18:36:39.039Z,99873.47
2023-04-13T18:39:09.388Z,99862.00
2023-04-13T18:41:40.970Z,99864.09
2023-04-13T18:44:12.001Z,99856.50
2023-04-13T18:46:43.447Z,99860.00
2023-04-13T18:49:13.936Z,99855.81
2023-04-13T18:51:44.499Z,99852.41
2023-04-13T18:54:12.933Z,99834.28
2023-04-13T18:56:41.815Z,99840.72
2023-04-13T18:59:11.499Z,99837.81
2023-04-13T19:01:41.848Z,99837.06
2023-04-13T19:04:11.329Z,99837.03
2023-04-13T19:06:41.888Z,99828.13
2023-04-13T19:09:11.374Z,99820.34
2023-04-13T19:12:01.848Z,99818.25
2023-04-13T19:14:31.720Z,99823.44
2023-04-13T19:17:02.072Z,99814.22
2023-04-13T19:19:32.965Z,99813.09
2023-04-13T19:22:01.985Z,99806.25
2023-04-13T19:24:31.737Z,99804.97
2023-04-13T19:27:01.058Z,99798.00
2023-04-13T19:29:31.324Z,99792.00
2023-04-13T19:32:02.232Z,99785.53
2023-04-13T19:34:32.499Z,99787.34
2023-04-13T19:37:02.731Z,99783.97
2023-04-13T19:39:33.096Z,99774.72
2023-04-13T19:42:02.265Z,99771.81
2023-04-13T19:44:32.414Z,99771.03
2023-04-13T19:47:02.676Z,99765.97
2023-04-13T19:49:32.373Z,99761.44
2023-04-13T19:52:02.718Z,99757.09
2023-04-13T19:54:32.698Z,99750.97
2023-04-13T19:57:01.833Z,99747.72
2023-04-13T19:59:32.904Z,99752.72
2023-04-13T20:02:02.597Z,99741.41
2023-04-13T20:04:33.469Z,99735.75
2023-04-13T20:07:03.084Z,99733.31
2023-04-13T20:09:32.944Z,99725.06
2023-04-13T20:12:02.399Z,99731.03
2023-04-13T20:14:33.060Z,99722.00
2023-04-13T20:17:02.219Z,99726.50
2023-04-13T20:19:34.278Z,99714.41
2023-04-13T20:22:04.960Z,99715.16
2023-04-13T20:24:34.826Z,99711.16
2023-04-13T20:27:03.396Z,99716.66
2023-04-13T20:29:33.868Z,99707.44
2023-04-13T20:32:03.208Z,99712.44
2023-04-13T20:34:35.187Z,99711.81
2023-04-13T20:37:10.321Z,99705.59
2023-04-13T20:39:51.320Z,99697.03
2023-04-13T20:42:23.233Z,99697.22
2023-04-13T20:44:59.340Z,99690.75
2023-04-13T20:47:32.555Z,99689.09
2023-04-13T20:50:02.172Z,99690.28
2023-04-13T20:52:31.425Z,99686.63
2023-04-13T20:55:01.294Z,99673.25
2023-04-13T20:57:33.973Z,99666.78
2023-04-13T21:00:08.356Z,99659.06
2023-04-13T21:02:39.476Z,99659.69
2023-04-13T21:05:10.404Z,99664.25
2023-04-13T21:07:42.483Z,99661.19
2023-04-13T21:10:12.364Z,99665.50
2023-04-13T21:12:40.964Z,99667.31
2023-04-13T21:15:10.429Z,99657.56
2023-04-13T21:17:39.425Z,99656.47
2023-04-13T21:20:09.984Z,99654.50
2023-04-13T21:22:39.111Z,99656.94
2023-04-13T21:25:08.686Z,99657.56
2023-04-13T21:27:37.905Z,99652.75
2023-04-13T21:30:09.089Z,99655.19
2023-04-13T21:32:38.471Z,99656.94
2023-04-13T21:35:07.775Z,99649.16
2023-04-13T21:37:37.336Z,99649.50
2023-04-13T21:40:07.184Z,99641.56
2023-04-13T21:42:38.210Z,99640.13
2023-04-13T21:45:07.119Z,99637.56
2023-04-13T21:47:36.567Z,99648.03
2023-04-13T21:50:06.303Z,99645.09
2023-04-13T21:52:34.723Z,99648.66
2023-04-13T21:55:04.653Z,99645.47
2023-04-13T21:57:33.548Z,99649.34
2023-04-13T22:00:16.964Z,99652.09
2023-04-13T22:02:47.558Z,99657.09
2023-04-13T22:05:18.805Z,99650.50
2023-04-13T22:07:49.401Z,99654.69
2023-04-13T22:10:21.434Z,99652.09
2023-04-13T22:12:50.460Z,99658.09
2023-04-13T22:15:19.201Z,99658.22
2023-04-13T22:17:49.436Z,99659.69
2023-04-13T22:20:18.344Z,99658.22
2023-04-13T22:22:46.783Z,99669.75
2023-04-13T22:25:16.205Z,99663.44
2023-04-13T22:27:45.214Z,99668.13
2023-04-13T22:30:14.317Z,99666.00
2023-04-13T22:32:43.261Z,99668.72
2023-04-13T22:35:13.199Z,99665.31
2023-04-13T22:37:42.457Z,99667.94
2023-04-13T22:40:12.482Z,99663.09
2023-04-13T22:42:42.181Z,99665.84
2023-04-13T22:45:11.448Z,99668.94
2023-04-13T22:47:41.470Z,99662.31
2023-04-13T22:50:11.262Z,99660.19
2023-04-13T22:52:41.227Z,99662.44
2023-04-13T22:55:10.554Z,99665.53
2023-04-13T22:57:38.967Z,99656.16
2023-04-13T23:00:09.248Z,99656.00
2023-04-13T23:02:38.860Z,99654.53
2023-04-13T23:05:09.856Z,99657.44
2023-04-13T23:07:38.985Z,99659.69
2023-04-13T23:10:10.078Z,99656.00
2023-04-13T23:12:39.021Z,99654.84
2023-04-13T23:15:09.546Z,99662.75
2023-04-13T23:17:38.897Z,99665.22
2023-04-13T23:20:09.140Z,99660.34
2023-04-13T23:22:38.802Z,99660.66
2023-04-13T23:25:08.353Z,99661.13
2023-04-13T23:27:38.360Z,99665.66
2023-04-13T23:30:07.317Z,99668.81
2023-04-13T23:32:37.216Z,99674.66
2023-04-13T23:35:07.249Z,99670.09
2023-04-13T23:37:36.932Z,99673.41
2023-04-13T23:40:06.460Z,99679.66
2023-04-13T23:42:34.664Z,99676.41
2023-04-13T23:45:03.391Z,99675.38
2023-04-13T23:47:32.818Z,99685.78
2023-04-13T23:50:02.643Z,99679.75
2023-04-13T23:52:32.722Z,99676.34
2023-04-13T23:55:02.521Z,99682.59
2023-04-13T23:57:35.156Z,99681.25
